Time;durP1;ratioP1;P1;durP2;ratioP2;P2;SDS_P1;SDS_P2;PMS_P1;PMS_P2;Temp;Humidity;BMP_temperature;BMP_pressure;BME280_temperature;BME280_humidity;BME280_pressure;Samples;Min_cycle;Max_cycle;Signal;HPM_P1;HPM_P2
2022/09/06 00:00:00;;;;;;;0.7;0.7;;;;;;;22.2;100.0;101310;;;;
2022/09/06 00:01:00;;;;;;;0.7;0.7;;;;;;;22.2;100.0;101310;;;;
2022/09/06 00:02:00;;;;;;;0.7;0.7;;;;;;;22.2;100.0;101300;;;;
2022/09/06 00:03:00;;;;;;;0.7;0.7;;;;;;;22.2;100.0;101300;;;;
2022/09/06 00:04:00;;;;;;;0.7;0.7;;;;;;;22.1;100.0;101300;;;;
2022/09/06 00:05:00;;;;;;;0.7;0.7;;;;;;;22.1;100.0;101300;;;;
2022/09/06 00:06:04;;;;;;;0.7;0.7;;;;;;;21.9;100.0;101300;;;;
2022/09/06 00:07:00;;;;;;;0.7;0.7;;;;;;;21.9;100.0;101300;;;;
2022/09/06 00:08:01;;;;;;;0.2;0.2;;;;;;;22.0;100.0;101290;;;;
2022/09/06 00:09:00;;;;;;;0.2;0.2;;;;;;;22.0;100.0;101290;;;;
2022/09/06 00:10:00;;;;;;;0.2;0.2;;;;;;;21.9;100.0;101290;;;;
2022/09/06 00:11:01;;;;;;;0.2;0.2;;;;;;;21.9;100.0;101290;;;;
2022/09/06 00:12:00;;;;;;;0.2;0.2;;;;;;;21.7;100.0;101280;;;;
2022/09/06 00:13:01;;;;;;;0.2;0.2;;;;;;;21.7;100.0;101280;;;;
2022/09/06 00:14:00;;;;;;;0.2;0.2;;;;;;;21.6;100.0;101280;;;;
2022/09/06 00:15:00;;;;;;;0.2;0.2;;;;;;;21.6;100.0;101280;;;;
2022/09/06 00:16:04;;;;;;;0.2;0.2;;;;;;;21.5;100.0;101280;;;;
2022/09/06 00:17:00;;;;;;;0.2;0.2;;;;;;;21.5;100.0;101280;;;;
2022/09/06 00:18:01;;;;;;;0.2;0.2;;;;;;;21.3;100.0;101270;;;;
2022/09/06 00:19:00;;;;;;;0.2;0.2;;;;;;;21.3;100.0;101270;;;;
2022/09/06 00:20:00;;;;;;;0.2;0.2;;;;;;;21.4;100.0;101280;;;;
2022/09/06 00:21:00;;;;;;;0.2;0.2;;;;;;;21.4;100.0;101280;;;;
2022/09/06 00:22:00;;;;;;;0.2;0.2;;;;;;;21.7;100.0;101280;;;;
2022/09/06 00:23:01;;;;;;;0.2;0.2;;;;;;;21.7;100.0;101280;;;;
2022/09/06 00:24:00;;;;;;;0.2;0.2;;;;;;;21.5;100.0;101290;;;;
2022/09/06 00:25:00;;;;;;;0.2;0.2;;;;;;;21.5;100.0;101290;;;;
2022/09/06 00:26:00;;;;;;;0.2;0.2;;;;;;;21.5;100.0;101300;;;;
2022/09/06 00:27:00;;;;;;;0.2;0.2;;;;;;;21.5;100.0;101300;;;;
2022/09/06 00:28:01;;;;;;;0.3;0.3;;;;;;;21.5;100.0;101320;;;;
2022/09/06 00:29:00;;;;;;;0.3;0.3;;;;;;;21.5;100.0;101320;;;;
2022/09/06 00:30:00;;;;;;;0.3;0.3;;;;;;;21.5;100.0;101330;;;;
2022/09/06 00:31:09;;;;;;;0.3;0.3;;;;;;;21.5;100.0;101330;;;;
2022/09/06 00:32:00;;;;;;;0.3;0.3;;;;;;;21.6;100.0;101340;;;;
2022/09/06 00:33:00;;;;;;;0.3;0.3;;;;;;;21.6;100.0;101340;;;;
2022/09/06 00:34:00;;;;;;;0.3;0.3;;;;;;;21.6;100.0;101360;;;;
2022/09/06 00:35:00;;;;;;;0.3;0.3;;;;;;;21.6;100.0;101360;;;;
2022/09/06 00:36:00;;;;;;;0.3;0.3;;;;;;;21.8;100.0;101390;;;;
2022/09/06 00:37:00;;;;;;;0.3;0.3;;;;;;;21.8;100.0;101390;;;;
2022/09/06 00:38:00;;;;;;;0.3;0.3;;;;;;;21.8;100.0;101430;;;;
2022/09/06 00:39:00;;;;;;;0.3;0.3;;;;;;;21.8;100.0;101430;;;;
2022/09/06 00:40:00;;;;;;;0.3;0.3;;;;;;;21.7;100.0;101460;;;;
2022/09/06 00:41:00;;;;;;;0.3;0.3;;;;;;;21.7;100.0;101460;;;;
2022/09/06 00:42:00;;;;;;;0.3;0.3;;;;;;;21.6;100.0;101460;;;;
2022/09/06 00:43:00;;;;;;;0.3;0.3;;;;;;;21.6;100.0;101460;;;;
2022/09/06 00:44:00;;;;;;;0.3;0.3;;;;;;;21.6;100.0;101460;;;;
2022/09/06 00:45:00;;;;;;;0.3;0.3;;;;;;;21.6;100.0;101460;;;;
2022/09/06 00:46:01;;;;;;;0.3;0.3;;;;;;;21.5;100.0;101450;;;;
2022/09/06 00:47:00;;;;;;;0.3;0.3;;;;;;;21.5;100.0;101450;;;;
2022/09/06 00:48:00;;;;;;;0.2;0.2;;;;;;;21.5;100.0;101470;;;;
2022/09/06 00:49:04;;;;;;;0.2;0.2;;;;;;;21.5;100.0;101470;;;;
2022/09/06 00:50:00;;;;;;;0.2;0.2;;;;;;;21.5;100.0;101480;;;;
2022/09/06 00:51:01;;;;;;;0.2;0.2;;;;;;;21.5;100.0;101480;;;;
2022/09/06 00:52:02;;;;;;;0.2;0.2;;;;;;;21.5;100.0;101460;;;;
2022/09/06 00:53:00;;;;;;;0.2;0.2;;;;;;;21.5;100.0;101460;;;;
2022/09/06 00:54:02;;;;;;;0.2;0.2;;;;;;;21.5;100.0;101450;;;;
2022/09/06 00:55:00;;;;;;;0.2;0.2;;;;;;;21.5;100.0;101450;;;;
2022/09/06 00:56:00;;;;;;;0.2;0.2;;;;;;;21.6;100.0;101440;;;;
2022/09/06 00:57:00;;;;;;;0.2;0.2;;;;;;;21.6;100.0;101440;;;;
2022/09/06 00:58:00;;;;;;;0.2;0.2;;;;;;;21.5;100.0;101430;;;;
2022/09/06 00:59:00;;;;;;;0.2;0.2;;;;;;;21.5;100.0;101430;;;;
2022/09/06 01:00:01;;;;;;;0.2;0.2;;;;;;;21.4;100.0;101430;;;;
2022/09/06 01:01:00;;;;;;;0.2;0.2;;;;;;;21.4;100.0;101430;;;;
2022/09/06 01:02:01;;;;;;;0.2;0.2;;;;;;;21.4;100.0;101430;;;;
2022/09/06 01:03:00;;;;;;;0.2;0.2;;;;;;;21.4;100.0;101430;;;;
2022/09/06 01:04:00;;;;;;;0.2;0.2;;;;;;;21.5;100.0;101430;;;;
2022/09/06 01:05:01;;;;;;;0.2;0.2;;;;;;;21.5;100.0;101430;;;;
2022/09/06 01:06:01;;;;;;;0.2;0.2;;;;;;;21.6;100.0;101430;;;;
2022/09/06 01:07:10;;;;;;;0.2;0.2;;;;;;;21.6;100.0;101430;;;;
2022/09/06 01:08:10;;;;;;;0.2;0.2;;;;;;;21.6;100.0;101430;;;;
2022/09/06 01:09:00;;;;;;;0.2;0.2;;;;;;;21.6;100.0;101430;;;;
2022/09/06 01:10:01;;;;;;;0.2;0.2;;;;;;;21.7;100.0;101430;;;;
2022/09/06 01:11:03;;;;;;;0.2;0.2;;;;;;;21.7;100.0;101430;;;;
2022/09/06 01:12:10;;;;;;;0.2;0.2;;;;;;;21.7;100.0;101430;;;;
2022/09/06 01:13:03;;;;;;;0.2;0.2;;;;;;;21.7;100.0;101430;;;;
2022/09/06 01:14:08;;;;;;;0.2;0.2;;;;;;;21.6;100.0;101440;;;;
2022/09/06 01:15:01;;;;;;;0.2;0.2;;;;;;;21.6;100.0;101440;;;;
2022/09/06 01:16:10;;;;;;;0.2;0.2;;;;;;;21.7;100.0;101430;;;;
2022/09/06 01:17:10;;;;;;;0.2;0.2;;;;;;;21.7;100.0;101430;;;;
2022/09/06 01:18:08;;;;;;;0.2;0.2;;;;;;;21.5;100.0;101420;;;;
2022/09/06 01:19:10;;;;;;;0.2;0.2;;;;;;;21.5;100.0;101420;;;;
2022/09/06 01:20:10;;;;;;;0.2;0.2;;;;;;;21.6;100.0;101410;;;;
2022/09/06 01:21:10;;;;;;;0.2;0.2;;;;;;;21.6;100.0;101410;;;;
2022/09/06 01:22:10;;;;;;;0.2;0.2;;;;;;;21.2;100.0;101400;;;;
2022/09/06 01:23:10;;;;;;;0.2;0.2;;;;;;;21.2;100.0;101400;;;;
2022/09/06 01:24:00;;;;;;;0.2;0.2;;;;;;;21.3;100.0;101400;;;;
2022/09/06 01:25:10;;;;;;;0.2;0.2;;;;;;;21.3;100.0;101400;;;;
2022/09/06 01:26:10;;;;;;;0.2;0.2;;;;;;;21.5;100.0;101410;;;;
2022/09/06 01:27:10;;;;;;;0.2;0.2;;;;;;;21.5;100.0;101410;;;;
2022/09/06 01:28:01;;;;;;;1.3;1.2;;;;;;;21.6;100.0;101410;;;;
2022/09/06 01:29:00;;;;;;;1.3;1.2;;;;;;;21.6;100.0;101410;;;;
2022/09/06 01:30:04;;;;;;;1.3;1.2;;;;;;;21.4;100.0;101390;;;;
2022/09/06 01:31:10;;;;;;;1.3;1.2;;;;;;;21.4;100.0;101390;;;;
2022/09/06 01:32:08;;;;;;;1.3;1.2;;;;;;;21.4;100.0;101390;;;;
2022/09/06 01:33:10;;;;;;;1.3;1.2;;;;;;;21.4;100.0;101390;;;;
2022/09/06 01:34:07;;;;;;;1.3;1.2;;;;;;;21.5;100.0;101390;;;;
2022/09/06 01:35:10;;;;;;;1.3;1.2;;;;;;;21.5;100.0;101390;;;;
2022/09/06 01:36:03;;;;;;;1.3;1.2;;;;;;;21.5;100.0;101380;;;;
2022/09/06 01:37:10;;;;;;;1.3;1.2;;;;;;;21.5;100.0;101380;;;;
2022/09/06 01:38:00;;;;;;;1.3;1.2;;;;;;;21.5;100.0;101380;;;;
2022/09/06 01:39:00;;;;;;;1.3;1.2;;;;;;;21.5;100.0;101380;;;;
2022/09/06 01:40:00;;;;;;;1.3;1.2;;;;;;;21.6;100.0;101360;;;;
2022/09/06 01:41:00;;;;;;;1.3;1.2;;;;;;;21.6;100.0;101360;;;;
2022/09/06 01:42:04;;;;;;;1.3;1.2;;;;;;;21.6;100.0;101350;;;;
2022/09/06 01:43:00;;;;;;;1.3;1.2;;;;;;;21.6;100.0;101350;;;;
2022/09/06 01:44:00;;;;;;;1.3;1.2;;;;;;;21.4;100.0;101340;;;;
2022/09/06 01:45:02;;;;;;;1.3;1.2;;;;;;;21.4;100.0;101340;;;;
2022/09/06 01:46:06;;;;;;;1.3;1.2;;;;;;;21.2;100.0;101330;;;;
2022/09/06 01:47:07;;;;;;;1.3;1.2;;;;;;;21.2;100.0;101330;;;;
2022/09/06 01:48:10;;;;;;;0.2;0.2;;;;;;;21.2;100.0;101330;;;;
2022/09/06 01:49:10;;;;;;;0.2;0.2;;;;;;;21.2;100.0;101330;;;;
2022/09/06 01:50:10;;;;;;;0.2;0.2;;;;;;;21.2;100.0;101320;;;;
2022/09/06 01:51:10;;;;;;;0.2;0.2;;;;;;;21.2;100.0;101320;;;;
2022/09/06 01:52:10;;;;;;;0.2;0.2;;;;;;;21.2;100.0;101310;;;;
2022/09/06 01:53:03;;;;;;;0.2;0.2;;;;;;;21.2;100.0;101310;;;;
2022/09/06 01:54:10;;;;;;;0.2;0.2;;;;;;;20.9;100.0;101300;;;;
2022/09/06 01:55:10;;;;;;;0.2;0.2;;;;;;;20.9;100.0;101300;;;;
2022/09/06 01:56:00;;;;;;;0.2;0.2;;;;;;;20.7;100.0;101280;;;;
2022/09/06 01:57:07;;;;;;;0.2;0.2;;;;;;;20.7;100.0;101280;;;;
2022/09/06 01:58:10;;;;;;;0.2;0.2;;;;;;;20.6;100.0;101270;;;;
2022/09/06 01:59:03;;;;;;;0.2;0.2;;;;;;;20.6;100.0;101270;;;;
2022/09/06 02:00:08;;;;;;;0.2;0.2;;;;;;;20.5;100.0;101250;;;;
2022/09/06 02:01:10;;;;;;;0.2;0.2;;;;;;;20.5;100.0;101250;;;;
2022/09/06 02:02:06;;;;;;;0.2;0.2;;;;;;;20.4;100.0;101240;;;;
2022/09/06 02:03:10;;;;;;;0.2;0.2;;;;;;;20.4;100.0;101240;;;;
2022/09/06 02:04:10;;;;;;;0.2;0.2;;;;;;;20.4;100.0;101220;;;;
2022/09/06 02:05:05;;;;;;;0.2;0.2;;;;;;;20.4;100.0;101220;;;;
2022/09/06 02:06:06;;;;;;;0.2;0.2;;;;;;;20.1;100.0;101210;;;;
2022/09/06 02:07:06;;;;;;;0.2;0.2;;;;;;;20.1;100.0;101210;;;;
2022/09/06 02:08:03;;;;;;;0.2;0.2;;;;;;;19.9;100.0;101190;;;;
2022/09/06 02:09:05;;;;;;;0.2;0.2;;;;;;;19.9;100.0;101190;;;;
2022/09/06 02:10:06;;;;;;;0.2;0.2;;;;;;;19.9;100.0;101180;;;;
2022/09/06 02:11:01;;;;;;;0.2;0.2;;;;;;;19.9;100.0;101180;;;;
2022/09/06 02:12:03;;;;;;;0.2;0.2;;;;;;;20.1;100.0;101190;;;;
2022/09/06 02:13:01;;;;;;;0.2;0.2;;;;;;;20.1;100.0;101190;;;;
2022/09/06 02:14:04;;;;;;;0.2;0.2;;;;;;;20.3;100.0;101180;;;;
2022/09/06 02:15:06;;;;;;;0.2;0.2;;;;;;;20.3;100.0;101180;;;;
2022/09/06 02:16:01;;;;;;;0.2;0.2;;;;;;;19.9;100.0;101190;;;;
2022/09/06 02:17:01;;;;;;;0.2;0.2;;;;;;;19.9;100.0;101190;;;;
2022/09/06 02:18:05;;;;;;;0.2;0.2;;;;;;;19.9;100.0;101180;;;;
2022/09/06 02:19:00;;;;;;;0.2;0.2;;;;;;;19.9;100.0;101180;;;;
2022/09/06 02:20:03;;;;;;;0.2;0.2;;;;;;;20.0;100.0;101180;;;;
2022/09/06 02:21:01;;;;;;;0.2;0.2;;;;;;;20.0;100.0;101180;;;;
2022/09/06 02:22:03;;;;;;;0.2;0.2;;;;;;;19.9;100.0;101180;;;;
2022/09/06 02:23:02;;;;;;;0.2;0.2;;;;;;;19.9;100.0;101180;;;;
2022/09/06 02:24:01;;;;;;;0.2;0.2;;;;;;;20.0;100.0;101180;;;;
2022/09/06 02:25:01;;;;;;;0.2;0.2;;;;;;;20.0;100.0;101180;;;;
2022/09/06 02:26:04;;;;;;;0.2;0.2;;;;;;;20.1;100.0;101180;;;;
2022/09/06 02:27:00;;;;;;;0.2;0.2;;;;;;;20.1;100.0;101180;;;;
2022/09/06 02:28:00;;;;;;;0.1;0.1;;;;;;;20.0;100.0;101180;;;;
2022/09/06 02:29:00;;;;;;;0.1;0.1;;;;;;;20.0;100.0;101180;;;;
2022/09/06 02:30:01;;;;;;;0.1;0.1;;;;;;;20.1;100.0;101190;;;;
2022/09/06 02:31:02;;;;;;;0.1;0.1;;;;;;;20.1;100.0;101190;;;;
2022/09/06 02:32:10;;;;;;;0.1;0.1;;;;;;;20.0;100.0;101190;;;;
2022/09/06 02:33:06;;;;;;;0.1;0.1;;;;;;;20.0;100.0;101190;;;;
2022/09/06 02:34:00;;;;;;;0.1;0.1;;;;;;;20.0;100.0;101190;;;;
2022/09/06 02:35:04;;;;;;;0.1;0.1;;;;;;;20.0;100.0;101190;;;;
2022/09/06 02:36:03;;;;;;;0.1;0.1;;;;;;;20.1;100.0;101200;;;;
2022/09/06 02:37:00;;;;;;;0.1;0.1;;;;;;;20.1;100.0;101200;;;;
2022/09/06 02:38:01;;;;;;;0.1;0.1;;;;;;;20.1;100.0;101190;;;;
2022/09/06 02:39:00;;;;;;;0.1;0.1;;;;;;;20.1;100.0;101190;;;;
2022/09/06 02:40:00;;;;;;;0.1;0.1;;;;;;;20.2;100.0;101180;;;;
2022/09/06 02:41:00;;;;;;;0.1;0.1;;;;;;;20.2;100.0;101180;;;;
2022/09/06 02:42:00;;;;;;;0.1;0.1;;;;;;;20.0;100.0;101180;;;;
2022/09/06 02:43:00;;;;;;;0.1;0.1;;;;;;;20.0;100.0;101180;;;;
2022/09/06 02:44:00;;;;;;;0.1;0.1;;;;;;;20.0;100.0;101180;;;;
2022/09/06 02:45:00;;;;;;;0.1;0.1;;;;;;;20.0;100.0;101180;;;;
2022/09/06 02:46:00;;;;;;;0.1;0.1;;;;;;;20.1;100.0;101190;;;;
2022/09/06 02:47:02;;;;;;;0.1;0.1;;;;;;;20.1;100.0;101190;;;;
2022/09/06 02:48:00;;;;;;;0.2;0.2;;;;;;;20.4;100.0;101200;;;;
2022/09/06 02:49:00;;;;;;;0.2;0.2;;;;;;;20.4;100.0;101200;;;;
2022/09/06 02:50:00;;;;;;;0.2;0.2;;;;;;;20.5;100.0;101220;;;;
2022/09/06 02:51:02;;;;;;;0.2;0.2;;;;;;;20.5;100.0;101220;;;;
2022/09/06 02:52:00;;;;;;;0.2;0.2;;;;;;;20.5;100.0;101230;;;;
2022/09/06 02:53:01;;;;;;;0.2;0.2;;;;;;;20.5;100.0;101230;;;;
2022/09/06 02:54:00;;;;;;;0.2;0.2;;;;;;;20.6;100.0;101240;;;;
2022/09/06 02:55:00;;;;;;;0.2;0.2;;;;;;;20.6;100.0;101240;;;;
2022/09/06 02:56:00;;;;;;;0.2;0.2;;;;;;;20.5;100.0;101250;;;;
2022/09/06 02:57:00;;;;;;;0.2;0.2;;;;;;;20.5;100.0;101250;;;;
2022/09/06 02:58:00;;;;;;;0.2;0.2;;;;;;;20.4;100.0;101250;;;;
2022/09/06 02:59:00;;;;;;;0.2;0.2;;;;;;;20.4;100.0;101250;;;;
2022/09/06 03:00:00;;;;;;;0.2;0.2;;;;;;;20.6;100.0;101240;;;;
2022/09/06 03:01:00;;;;;;;0.2;0.2;;;;;;;20.6;100.0;101240;;;;
2022/09/06 03:02:00;;;;;;;0.2;0.2;;;;;;;20.6;100.0;101230;;;;
2022/09/06 03:03:00;;;;;;;0.2;0.2;;;;;;;20.6;100.0;101230;;;;
2022/09/06 03:04:00;;;;;;;0.2;0.2;;;;;;;20.5;100.0;101230;;;;
2022/09/06 03:05:00;;;;;;;0.2;0.2;;;;;;;20.5;100.0;101230;;;;
2022/09/06 03:06:00;;;;;;;0.2;0.2;;;;;;;20.6;100.0;101230;;;;
2022/09/06 03:07:00;;;;;;;0.2;0.2;;;;;;;20.6;100.0;101230;;;;
2022/09/06 03:08:00;;;;;;;0.2;0.2;;;;;;;20.7;100.0;101230;;;;
2022/09/06 03:09:00;;;;;;;0.2;0.2;;;;;;;20.7;100.0;101230;;;;
2022/09/06 03:10:00;;;;;;;0.2;0.2;;;;;;;20.7;100.0;101230;;;;
2022/09/06 03:11:00;;;;;;;0.2;0.2;;;;;;;20.7;100.0;101230;;;;
2022/09/06 03:12:00;;;;;;;0.2;0.2;;;;;;;20.7;100.0;101230;;;;
2022/09/06 03:13:00;;;;;;;0.2;0.2;;;;;;;20.7;100.0;101230;;;;
2022/09/06 03:14:00;;;;;;;0.2;0.2;;;;;;;20.7;100.0;101220;;;;
2022/09/06 03:15:00;;;;;;;0.2;0.2;;;;;;;20.7;100.0;101220;;;;
2022/09/06 03:16:00;;;;;;;0.2;0.2;;;;;;;20.7;100.0;101220;;;;
2022/09/06 03:17:00;;;;;;;0.2;0.2;;;;;;;20.7;100.0;101220;;;;
2022/09/06 03:18:00;;;;;;;0.2;0.2;;;;;;;20.7;100.0;101220;;;;
2022/09/06 03:19:00;;;;;;;0.2;0.2;;;;;;;20.7;100.0;101220;;;;
2022/09/06 03:20:00;;;;;;;0.2;0.2;;;;;;;20.7;100.0;101220;;;;
2022/09/06 03:21:00;;;;;;;0.2;0.2;;;;;;;20.7;100.0;101220;;;;
2022/09/06 03:22:00;;;;;;;0.2;0.2;;;;;;;20.7;100.0;101230;;;;
2022/09/06 03:23:00;;;;;;;0.2;0.2;;;;;;;20.7;100.0;101230;;;;
2022/09/06 03:24:00;;;;;;;0.2;0.2;;;;;;;20.7;100.0;101220;;;;
2022/09/06 03:25:00;;;;;;;0.2;0.2;;;;;;;20.7;100.0;101220;;;;
2022/09/06 03:26:00;;;;;;;0.2;0.2;;;;;;;20.7;100.0;101220;;;;
2022/09/06 03:27:00;;;;;;;0.2;0.2;;;;;;;20.7;100.0;101220;;;;
2022/09/06 03:28:00;;;;;;;0.1;0.1;;;;;;;20.8;100.0;101230;;;;
2022/09/06 03:29:00;;;;;;;0.1;0.1;;;;;;;20.8;100.0;101230;;;;
2022/09/06 03:30:00;;;;;;;0.1;0.1;;;;;;;20.7;100.0;101230;;;;
2022/09/06 03:31:00;;;;;;;0.1;0.1;;;;;;;20.7;100.0;101230;;;;
2022/09/06 03:32:00;;;;;;;0.1;0.1;;;;;;;20.6;100.0;101230;;;;
2022/09/06 03:33:03;;;;;;;0.1;0.1;;;;;;;20.6;100.0;101230;;;;
2022/09/06 03:34:00;;;;;;;0.1;0.1;;;;;;;20.6;100.0;101230;;;;
2022/09/06 03:35:00;;;;;;;0.1;0.1;;;;;;;20.6;100.0;101230;;;;
2022/09/06 03:36:00;;;;;;;0.1;0.1;;;;;;;20.6;100.0;101220;;;;
2022/09/06 03:37:00;;;;;;;0.1;0.1;;;;;;;20.6;100.0;101220;;;;
2022/09/06 03:38:00;;;;;;;0.1;0.1;;;;;;;20.6;100.0;101220;;;;
2022/09/06 03:39:00;;;;;;;0.1;0.1;;;;;;;20.6;100.0;101220;;;;
2022/09/06 03:40:00;;;;;;;0.1;0.1;;;;;;;20.6;100.0;101220;;;;
2022/09/06 03:41:00;;;;;;;0.1;0.1;;;;;;;20.6;100.0;101220;;;;
2022/09/06 03:42:00;;;;;;;0.1;0.1;;;;;;;20.6;100.0;101220;;;;
2022/09/06 03:43:00;;;;;;;0.1;0.1;;;;;;;20.6;100.0;101220;;;;
2022/09/06 03:44:00;;;;;;;0.1;0.1;;;;;;;20.5;100.0;101220;;;;
2022/09/06 03:45:00;;;;;;;0.1;0.1;;;;;;;20.5;100.0;101220;;;;
2022/09/06 03:46:01;;;;;;;0.1;0.1;;;;;;;20.6;100.0;101210;;;;
2022/09/06 03:47:00;;;;;;;0.1;0.1;;;;;;;20.6;100.0;101210;;;;
2022/09/06 03:48:00;;;;;;;0.2;0.2;;;;;;;20.6;100.0;101210;;;;
2022/09/06 03:49:00;;;;;;;0.2;0.2;;;;;;;20.6;100.0;101210;;;;
2022/09/06 03:50:00;;;;;;;0.2;0.2;;;;;;;20.5;100.0;101210;;;;
2022/09/06 03:51:00;;;;;;;0.2;0.2;;;;;;;20.5;100.0;101210;;;;
2022/09/06 03:52:00;;;;;;;0.2;0.2;;;;;;;20.6;100.0;101220;;;;
2022/09/06 03:53:00;;;;;;;0.2;0.2;;;;;;;20.6;100.0;101220;;;;
2022/09/06 03:54:00;;;;;;;0.2;0.2;;;;;;;20.6;100.0;101220;;;;
2022/09/06 03:55:00;;;;;;;0.2;0.2;;;;;;;20.6;100.0;101220;;;;
2022/09/06 03:56:00;;;;;;;0.2;0.2;;;;;;;20.6;100.0;101220;;;;
2022/09/06 03:57:00;;;;;;;0.2;0.2;;;;;;;20.6;100.0;101220;;;;
2022/09/06 03:58:00;;;;;;;0.2;0.2;;;;;;;20.6;100.0;101220;;;;
2022/09/06 03:59:00;;;;;;;0.2;0.2;;;;;;;20.6;100.0;101220;;;;
2022/09/06 04:00:00;;;;;;;0.2;0.2;;;;;;;20.6;100.0;101220;;;;
2022/09/06 04:01:01;;;;;;;0.2;0.2;;;;;;;20.6;100.0;101220;;;;
2022/09/06 04:02:00;;;;;;;0.2;0.2;;;;;;;20.4;100.0;101220;;;;
2022/09/06 04:03:02;;;;;;;0.2;0.2;;;;;;;20.4;100.0;101220;;;;
2022/09/06 04:04:00;;;;;;;0.2;0.2;;;;;;;20.5;100.0;101220;;;;
2022/09/06 04:05:00;;;;;;;0.2;0.2;;;;;;;20.5;100.0;101220;;;;
2022/09/06 04:06:00;;;;;;;0.2;0.2;;;;;;;20.5;100.0;101220;;;;
2022/09/06 04:07:00;;;;;;;0.2;0.2;;;;;;;20.5;100.0;101220;;;;
2022/09/06 04:08:00;;;;;;;0.2;0.2;;;;;;;20.6;100.0;101220;;;;
2022/09/06 04:09:00;;;;;;;0.2;0.2;;;;;;;20.6;100.0;101220;;;;
2022/09/06 04:10:00;;;;;;;0.2;0.2;;;;;;;20.5;100.0;101220;;;;
2022/09/06 04:11:00;;;;;;;0.2;0.2;;;;;;;20.5;100.0;101220;;;;
2022/09/06 04:12:00;;;;;;;0.2;0.2;;;;;;;20.4;100.0;101220;;;;
2022/09/06 04:13:00;;;;;;;0.2;0.2;;;;;;;20.4;100.0;101220;;;;
2022/09/06 04:14:00;;;;;;;0.2;0.2;;;;;;;20.5;100.0;101230;;;;
2022/09/06 04:15:00;;;;;;;0.2;0.2;;;;;;;20.5;100.0;101230;;;;
2022/09/06 04:16:00;;;;;;;0.2;0.2;;;;;;;20.4;100.0;101220;;;;
2022/09/06 04:17:00;;;;;;;0.2;0.2;;;;;;;20.4;100.0;101220;;;;
2022/09/06 04:18:00;;;;;;;0.2;0.2;;;;;;;20.4;100.0;101220;;;;
2022/09/06 04:19:01;;;;;;;0.2;0.2;;;;;;;20.4;100.0;101220;;;;
2022/09/06 04:20:00;;;;;;;0.2;0.2;;;;;;;20.3;100.0;101220;;;;
2022/09/06 04:21:00;;;;;;;0.2;0.2;;;;;;;20.3;100.0;101220;;;;
2022/09/06 04:22:00;;;;;;;0.2;0.2;;;;;;;20.3;100.0;101220;;;;
2022/09/06 04:23:00;;;;;;;0.2;0.2;;;;;;;20.3;100.0;101220;;;;
2022/09/06 04:24:00;;;;;;;0.2;0.2;;;;;;;20.3;100.0;101220;;;;
2022/09/06 04:25:00;;;;;;;0.2;0.2;;;;;;;20.3;100.0;101220;;;;
2022/09/06 04:26:00;;;;;;;0.2;0.2;;;;;;;20.2;100.0;101210;;;;
2022/09/06 04:27:00;;;;;;;0.2;0.2;;;;;;;20.2;100.0;101210;;;;
2022/09/06 04:28:00;;;;;;;0.2;0.2;;;;;;;20.2;100.0;101210;;;;
2022/09/06 04:29:00;;;;;;;0.2;0.2;;;;;;;20.2;100.0;101210;;;;
2022/09/06 04:30:00;;;;;;;0.2;0.2;;;;;;;20.1;100.0;101210;;;;
2022/09/06 04:31:04;;;;;;;0.2;0.2;;;;;;;20.1;100.0;101210;;;;
2022/09/06 04:32:00;;;;;;;0.2;0.2;;;;;;;20.1;100.0;101220;;;;
2022/09/06 04:33:00;;;;;;;0.2;0.2;;;;;;;20.1;100.0;101220;;;;
2022/09/06 04:34:00;;;;;;;0.2;0.2;;;;;;;20.0;100.0;101220;;;;
2022/09/06 04:35:00;;;;;;;0.2;0.2;;;;;;;20.0;100.0;101220;;;;
2022/09/06 04:36:00;;;;;;;0.2;0.2;;;;;;;20.0;100.0;101220;;;;
2022/09/06 04:37:00;;;;;;;0.2;0.2;;;;;;;20.0;100.0;101220;;;;
2022/09/06 04:38:00;;;;;;;0.2;0.2;;;;;;;20.0;100.0;101230;;;;
2022/09/06 04:39:00;;;;;;;0.2;0.2;;;;;;;20.0;100.0;101230;;;;
2022/09/06 04:40:00;;;;;;;0.2;0.2;;;;;;;19.9;100.0;101230;;;;
2022/09/06 04:41:00;;;;;;;0.2;0.2;;;;;;;19.9;100.0;101230;;;;
2022/09/06 04:42:00;;;;;;;0.2;0.2;;;;;;;19.8;100.0;101240;;;;
2022/09/06 04:43:00;;;;;;;0.2;0.2;;;;;;;19.8;100.0;101240;;;;
2022/09/06 04:44:00;;;;;;;0.2;0.2;;;;;;;19.9;100.0;101250;;;;
2022/09/06 04:45:00;;;;;;;0.2;0.2;;;;;;;19.9;100.0;101250;;;;
2022/09/06 04:46:06;;;;;;;0.2;0.2;;;;;;;19.7;100.0;101240;;;;
2022/09/06 04:47:11;;;;;;;0.2;0.2;;;;;;;19.7;100.0;101240;;;;
2022/09/06 04:48:00;;;;;;;0.2;0.2;;;;;;;19.7;100.0;101240;;;;
2022/09/06 04:49:00;;;;;;;0.2;0.2;;;;;;;19.7;100.0;101240;;;;
2022/09/06 04:50:00;;;;;;;0.2;0.2;;;;;;;19.6;100.0;101240;;;;
2022/09/06 04:51:00;;;;;;;0.2;0.2;;;;;;;19.6;100.0;101240;;;;
2022/09/06 04:52:00;;;;;;;0.2;0.2;;;;;;;19.7;100.0;101240;;;;
2022/09/06 04:53:00;;;;;;;0.2;0.2;;;;;;;19.7;100.0;101240;;;;
2022/09/06 04:54:00;;;;;;;0.2;0.2;;;;;;;19.6;100.0;101240;;;;
2022/09/06 04:55:00;;;;;;;0.2;0.2;;;;;;;19.6;100.0;101240;;;;
2022/09/06 04:56:00;;;;;;;0.2;0.2;;;;;;;19.6;100.0;101240;;;;
2022/09/06 04:57:00;;;;;;;0.2;0.2;;;;;;;19.6;100.0;101240;;;;
2022/09/06 04:58:00;;;;;;;0.2;0.2;;;;;;;19.7;100.0;101240;;;;
2022/09/06 04:59:00;;;;;;;0.2;0.2;;;;;;;19.7;100.0;101240;;;;
2022/09/06 05:00:00;;;;;;;0.2;0.2;;;;;;;19.6;100.0;101240;;;;
2022/09/06 05:01:00;;;;;;;0.2;0.2;;;;;;;19.6;100.0;101240;;;;
2022/09/06 05:02:00;;;;;;;0.2;0.2;;;;;;;19.5;100.0;101240;;;;
2022/09/06 05:03:00;;;;;;;0.2;0.2;;;;;;;19.5;100.0;101240;;;;
2022/09/06 05:04:00;;;;;;;0.2;0.2;;;;;;;19.6;100.0;101240;;;;
2022/09/06 05:05:00;;;;;;;0.2;0.2;;;;;;;19.6;100.0;101240;;;;
2022/09/06 05:06:04;;;;;;;0.2;0.2;;;;;;;19.6;100.0;101240;;;;
2022/09/06 05:07:01;;;;;;;0.2;0.2;;;;;;;19.6;100.0;101240;;;;
2022/09/06 05:08:00;;;;;;;0.2;0.2;;;;;;;19.6;100.0;101240;;;;
2022/09/06 05:09:00;;;;;;;0.2;0.2;;;;;;;19.6;100.0;101240;;;;
2022/09/06 05:10:00;;;;;;;0.2;0.2;;;;;;;19.5;100.0;101250;;;;
2022/09/06 05:11:00;;;;;;;0.2;0.2;;;;;;;19.5;100.0;101250;;;;
2022/09/06 05:12:00;;;;;;;0.2;0.2;;;;;;;19.6;100.0;101250;;;;
2022/09/06 05:13:00;;;;;;;0.2;0.2;;;;;;;19.6;100.0;101250;;;;
2022/09/06 05:14:00;;;;;;;0.2;0.2;;;;;;;19.5;100.0;101250;;;;
2022/09/06 05:15:00;;;;;;;0.2;0.2;;;;;;;19.5;100.0;101250;;;;
2022/09/06 05:16:01;;;;;;;0.2;0.2;;;;;;;19.5;100.0;101250;;;;
2022/09/06 05:17:00;;;;;;;0.2;0.2;;;;;;;19.5;100.0;101250;;;;
2022/09/06 05:18:02;;;;;;;0.2;0.2;;;;;;;19.5;100.0;101250;;;;
2022/09/06 05:19:00;;;;;;;0.2;0.2;;;;;;;19.5;100.0;101250;;;;
2022/09/06 05:20:00;;;;;;;0.2;0.2;;;;;;;19.4;100.0;101260;;;;
2022/09/06 05:21:00;;;;;;;0.2;0.2;;;;;;;19.4;100.0;101260;;;;
2022/09/06 05:22:00;;;;;;;0.2;0.2;;;;;;;19.2;100.0;101260;;;;
2022/09/06 05:23:00;;;;;;;0.2;0.2;;;;;;;19.2;100.0;101260;;;;
2022/09/06 05:24:00;;;;;;;0.2;0.2;;;;;;;19.0;100.0;101270;;;;
2022/09/06 05:25:00;;;;;;;0.2;0.2;;;;;;;19.0;100.0;101270;;;;
2022/09/06 05:26:00;;;;;;;0.2;0.2;;;;;;;19.2;100.0;101270;;;;
2022/09/06 05:27:02;;;;;;;0.5;0.5;;;;;;;19.2;100.0;101270;;;;
2022/09/06 05:28:00;;;;;;;0.5;0.5;;;;;;;19.1;100.0;101270;;;;
2022/09/06 05:29:00;;;;;;;0.5;0.5;;;;;;;19.1;100.0;101270;;;;
2022/09/06 05:30:00;;;;;;;0.5;0.5;;;;;;;19.3;100.0;101260;;;;
2022/09/06 05:31:10;;;;;;;0.5;0.5;;;;;;;19.3;100.0;101260;;;;
2022/09/06 05:32:00;;;;;;;0.5;0.5;;;;;;;19.2;100.0;101260;;;;
2022/09/06 05:33:00;;;;;;;0.5;0.5;;;;;;;19.2;100.0;101260;;;;
2022/09/06 05:34:00;;;;;;;0.5;0.5;;;;;;;19.2;100.0;101260;;;;
2022/09/06 05:35:00;;;;;;;0.5;0.5;;;;;;;19.2;100.0;101260;;;;
2022/09/06 05:36:00;;;;;;;0.5;0.5;;;;;;;19.1;100.0;101260;;;;
2022/09/06 05:37:00;;;;;;;0.5;0.5;;;;;;;19.1;100.0;101260;;;;
2022/09/06 05:38:00;;;;;;;0.5;0.5;;;;;;;19.2;100.0;101260;;;;
2022/09/06 05:39:00;;;;;;;0.5;0.5;;;;;;;19.2;100.0;101260;;;;
2022/09/06 05:40:00;;;;;;;0.5;0.5;;;;;;;19.2;100.0;101270;;;;
2022/09/06 05:41:00;;;;;;;0.5;0.5;;;;;;;19.2;100.0;101270;;;;
2022/09/06 05:42:05;;;;;;;0.5;0.5;;;;;;;19.2;100.0;101270;;;;
2022/09/06 05:43:00;;;;;;;0.5;0.5;;;;;;;19.2;100.0;101270;;;;
2022/09/06 05:44:00;;;;;;;0.5;0.5;;;;;;;19.3;100.0;101270;;;;
2022/09/06 05:45:01;;;;;;;0.5;0.5;;;;;;;19.3;100.0;101270;;;;
2022/09/06 05:46:00;;;;;;;0.5;0.5;;;;;;;19.3;100.0;101270;;;;
2022/09/06 05:47:00;;;;;;;0.2;0.2;;;;;;;19.3;100.0;101270;;;;
2022/09/06 05:48:00;;;;;;;0.2;0.2;;;;;;;19.5;100.0;101270;;;;
2022/09/06 05:49:03;;;;;;;0.2;0.2;;;;;;;19.5;100.0;101270;;;;
2022/09/06 05:50:01;;;;;;;0.2;0.2;;;;;;;19.4;100.0;101280;;;;
2022/09/06 05:51:01;;;;;;;0.2;0.2;;;;;;;19.4;100.0;101280;;;;
2022/09/06 05:52:00;;;;;;;0.2;0.2;;;;;;;19.4;100.0;101280;;;;
2022/09/06 05:53:00;;;;;;;0.2;0.2;;;;;;;19.4;100.0;101280;;;;
2022/09/06 05:54:00;;;;;;;0.2;0.2;;;;;;;19.4;100.0;101280;;;;
2022/09/06 05:55:00;;;;;;;0.2;0.2;;;;;;;19.4;100.0;101280;;;;
2022/09/06 05:56:00;;;;;;;0.2;0.2;;;;;;;19.4;100.0;101280;;;;
2022/09/06 05:57:01;;;;;;;0.2;0.2;;;;;;;19.4;100.0;101280;;;;
2022/09/06 05:58:00;;;;;;;0.2;0.2;;;;;;;19.4;100.0;101270;;;;
2022/09/06 05:59:00;;;;;;;0.2;0.2;;;;;;;19.4;100.0;101270;;;;
2022/09/06 06:00:00;;;;;;;0.2;0.2;;;;;;;19.4;100.0;101270;;;;
2022/09/06 06:01:10;;;;;;;0.2;0.2;;;;;;;19.4;100.0;101270;;;;
2022/09/06 06:02:05;;;;;;;0.2;0.2;;;;;;;19.5;100.0;101280;;;;
2022/09/06 06:03:00;;;;;;;0.2;0.2;;;;;;;19.5;100.0;101280;;;;
2022/09/06 06:04:01;;;;;;;0.2;0.2;;;;;;;19.3;100.0;101280;;;;
2022/09/06 06:05:00;;;;;;;0.2;0.2;;;;;;;19.3;100.0;101280;;;;
2022/09/06 06:06:00;;;;;;;0.2;0.2;;;;;;;19.2;100.0;101280;;;;
2022/09/06 06:07:00;;;;;;;0.7;0.7;;;;;;;19.2;100.0;101280;;;;
2022/09/06 06:08:00;;;;;;;0.7;0.7;;;;;;;19.2;100.0;101280;;;;
2022/09/06 06:09:00;;;;;;;0.7;0.7;;;;;;;19.2;100.0;101280;;;;
2022/09/06 06:10:00;;;;;;;0.7;0.7;;;;;;;19.4;100.0;101280;;;;
2022/09/06 06:11:01;;;;;;;0.7;0.7;;;;;;;19.4;100.0;101280;;;;
2022/09/06 06:12:00;;;;;;;0.7;0.7;;;;;;;19.5;100.0;101290;;;;
2022/09/06 06:13:00;;;;;;;0.7;0.7;;;;;;;19.5;100.0;101290;;;;
2022/09/06 06:14:01;;;;;;;0.7;0.7;;;;;;;19.6;100.0;101290;;;;
2022/09/06 06:15:00;;;;;;;0.7;0.7;;;;;;;19.6;100.0;101290;;;;
2022/09/06 06:16:01;;;;;;;0.7;0.7;;;;;;;19.5;100.0;101290;;;;
2022/09/06 06:17:01;;;;;;;0.7;0.7;;;;;;;19.5;100.0;101290;;;;
2022/09/06 06:18:00;;;;;;;0.7;0.7;;;;;;;19.5;100.0;101280;;;;
2022/09/06 06:19:00;;;;;;;0.7;0.7;;;;;;;19.5;100.0;101280;;;;
2022/09/06 06:20:00;;;;;;;0.7;0.7;;;;;;;19.6;100.0;101280;;;;
2022/09/06 06:21:10;;;;;;;0.7;0.7;;;;;;;19.6;100.0;101280;;;;
2022/09/06 06:22:00;;;;;;;0.7;0.7;;;;;;;19.7;100.0;101280;;;;